createdAt,value
2023-02-27T00:03:06.264Z,100.00
2023-02-27T00:08:08.916Z,100.00
2023-02-27T00:13:10.728Z,100.00
2023-02-27T00:18:12.422Z,100.00
2023-02-27T00:23:14.857Z,100.00
2023-02-27T00:28:17.660Z,100.00
2023-02-27T00:33:20.076Z,100.00
2023-02-27T00:38:21.937Z,100.00
2023-02-27T00:43:24.799Z,100.00
2023-02-27T00:48:26.906Z,100.00
2023-02-27T00:53:28.688Z,100.00
2023-02-27T00:58:30.507Z,100.00
2023-02-27T01:03:32.245Z,100.00
2023-02-27T01:08:34.509Z,100.00
2023-02-27T01:13:39.878Z,100.00
2023-02-27T01:18:42.367Z,100.00
2023-02-27T01:23:44.253Z,100.00
2023-02-27T01:28:46.251Z,100.00
2023-02-27T01:33:48.238Z,100.00
2023-02-27T01:38:50.618Z,100.00
2023-02-27T01:44:04.893Z,100.00
2023-02-27T01:49:15.981Z,100.00
2023-02-27T01:54:22.563Z,100.00
2023-02-27T01:59:24.715Z,100.00
2023-02-27T02:04:36.490Z,100.00
2023-02-27T02:09:44.539Z,100.00
2023-02-27T02:14:47.392Z,100.00
2023-02-27T02:20:11.933Z,100.00
2023-02-27T02:25:48.450Z,100.00
2023-02-27T02:31:28.455Z,100.00
2023-02-27T02:36:42.272Z,100.00
2023-02-27T02:41:56.674Z,100.00
2023-02-27T02:47:05.797Z,100.00
2023-02-27T02:52:42.683Z,100.00
2023-02-27T02:57:52.281Z,100.00
2023-02-27T03:03:01.280Z,100.00
2023-02-27T03:08:14.184Z,100.00
2023-02-27T03:13:47.048Z,100.00
2023-02-27T03:19:17.564Z,100.00
2023-02-27T03:24:34.338Z,100.00
2023-02-27T03:30:07.841Z,100.00
2023-02-27T03:35:11.297Z,100.00
2023-02-27T03:40:39.211Z,100.00
2023-02-27T03:46:04.970Z,100.00
2023-02-27T03:51:08.414Z,100.00
2023-02-27T03:56:14.301Z,100.00
2023-02-27T04:01:16.502Z,100.00
2023-02-27T04:06:18.540Z,100.00
2023-02-27T04:11:20.327Z,100.00
2023-02-27T04:16:28.475Z,100.00
2023-02-27T04:21:39.752Z,100.00
2023-02-27T04:26:50.882Z,100.00
2023-02-27T04:31:58.434Z,100.00
2023-02-27T04:37:07.450Z,100.00
2023-02-27T04:42:16.889Z,100.00
2023-02-27T04:47:19.922Z,100.00
2023-02-27T04:52:27.435Z,100.00
2023-02-27T04:57:37.676Z,100.00
2023-02-27T05:02:45.311Z,100.00
2023-02-27T05:08:10.292Z,100.00
2023-02-27T05:13:18.697Z,100.00
2023-02-27T05:18:23.543Z,100.00
2023-02-27T05:23:42.844Z,100.00
2023-02-27T05:29:12.584Z,100.00
2023-02-27T05:34:23.469Z,100.00
2023-02-27T05:39:29.298Z,100.00
2023-02-27T05:44:40.530Z,100.00
2023-02-27T05:49:47.748Z,100.00
2023-02-27T05:54:59.731Z,100.00
2023-02-27T06:00:19.723Z,100.00
2023-02-27T06:05:25.420Z,100.00
2023-02-27T06:10:28.314Z,100.00
2023-02-27T06:15:31.160Z,100.00
2023-02-27T06:20:33.930Z,100.00
2023-02-27T06:25:36.608Z,100.00
2023-02-27T06:30:38.699Z,100.00
2023-02-27T06:35:41.902Z,100.00
2023-02-27T06:40:44.054Z,100.00
2023-02-27T06:45:45.832Z,100.00
2023-02-27T06:50:57.265Z,100.00
2023-02-27T06:56:00.241Z,100.00
2023-02-27T07:01:02.426Z,100.00
2023-02-27T07:06:05.140Z,100.00
2023-02-27T07:11:07.516Z,100.00
2023-02-27T07:16:09.538Z,100.00
2023-02-27T07:21:12.099Z,100.00
2023-02-27T07:26:14.788Z,100.00
2023-02-27T07:31:17.332Z,100.00
2023-02-27T07:36:18.983Z,100.00
2023-02-27T07:41:29.951Z,100.00
2023-02-27T07:46:35.929Z,100.00
2023-02-27T07:51:37.642Z,100.00
2023-02-27T07:56:39.843Z,100.00
2023-02-27T08:01:42.784Z,86.82
2023-02-27T08:06:45.177Z,90.89
2023-02-27T08:11:49.102Z,84.58
2023-02-27T08:16:51.287Z,80.50
2023-02-27T08:21:53.948Z,77.83
2023-02-27T08:26:56.025Z,73.09
2023-02-27T08:31:57.870Z,73.41
2023-02-27T08:37:00.628Z,70.37
2023-02-27T08:42:02.916Z,68.09
2023-02-27T08:47:04.618Z,70.51
2023-02-27T08:52:06.410Z,67.64
2023-02-27T08:57:08.166Z,70.15
2023-02-27T09:02:12.193Z,67.01
2023-02-27T09:07:14.351Z,68.90
2023-02-27T09:12:16.776Z,67.04
2023-02-27T09:17:18.506Z,66.22
2023-02-27T09:22:20.241Z,65.66
2023-02-27T09:27:22.447Z,68.67
2023-02-27T09:32:24.831Z,66.91
2023-02-27T09:37:27.090Z,68.54
2023-02-27T09:42:37.486Z,68.07
2023-02-27T09:47:47.892Z,65.84
2023-02-27T09:52:50.470Z,65.66
2023-02-27T09:58:27.716Z,63.96
2023-02-27T10:03:47.540Z,60.59
2023-02-27T10:09:12.242Z,60.87
2023-02-27T10:14:42.009Z,53.98
2023-02-27T10:19:47.191Z,55.09
2023-02-27T10:25:28.415Z,52.97
2023-02-27T10:30:34.939Z,54.57
2023-02-27T10:35:44.655Z,51.92
2023-02-27T10:40:48.516Z,54.90
2023-02-27T10:45:50.751Z,54.73
2023-02-27T10:50:52.696Z,55.75
2023-02-27T10:56:02.894Z,54.46
2023-02-27T11:01:07.284Z,50.57
2023-02-27T11:06:24.852Z,51.79
2023-02-27T11:11:28.502Z,55.36
2023-02-27T11:16:46.070Z,52.76
2023-02-27T11:22:14.844Z,48.30
2023-02-27T11:27:30.478Z,47.61
2023-02-27T11:32:44.911Z,44.69
2023-02-27T11:37:50.946Z,47.03
2023-02-27T11:43:16.449Z,51.12
2023-02-27T11:48:32.092Z,46.49
2023-02-27T11:54:09.980Z,44.70
2023-02-27T11:59:11.741Z,46.32
2023-02-27T12:04:38.705Z,45.52
2023-02-27T12:10:00.714Z,47.47
2023-02-27T12:15:44.454Z,48.76
2023-02-27T12:21:02.210Z,46.21
2023-02-27T12:26:10.567Z,46.31
2023-02-27T12:31:51.379Z,45.54
2023-02-27T12:36:54.373Z,45.57
2023-02-27T12:42:11.302Z,46.44
2023-02-27T12:47:34.538Z,46.51
2023-02-27T12:53:01.198Z,49.81
2023-02-27T12:58:11.817Z,46.95
2023-02-27T13:03:21.975Z,47.67
2023-02-27T13:08:42.401Z,48.15
2023-02-27T13:13:49.708Z,46.33
2023-02-27T13:18:57.002Z,48.55
2023-02-27T13:24:24.158Z,46.92
2023-02-27T13:29:44.744Z,46.31
2023-02-27T13:34:54.952Z,46.36
2023-02-27T13:39:56.785Z,44.94
2023-02-27T13:44:59.551Z,49.67
2023-02-27T13:50:17.338Z,47.46
2023-02-27T13:55:33.342Z,48.45
2023-02-27T14:00:36.352Z,45.84
2023-02-27T14:05:43.805Z,44.44
2023-02-27T14:11:10.479Z,44.67
2023-02-27T14:16:37.181Z,47.25
2023-02-27T14:21:51.490Z,45.78
2023-02-27T14:26:54.267Z,46.95
2023-02-27T14:31:59.194Z,44.70
2023-02-27T14:37:06.112Z,47.01
2023-02-27T14:48:14.399Z,46.57
2023-02-27T14:53:27.445Z,46.50
2023-02-27T14:58:29.255Z,48.87
2023-02-27T15:03:47.547Z,48.54
2023-02-27T15:08:53.197Z,48.59
2023-02-27T15:14:02.777Z,50.23
2023-02-27T15:19:17.094Z,50.00
2023-02-27T15:24:26.573Z,48.48
2023-02-27T15:29:55.710Z,48.99
2023-02-27T15:35:01.145Z,48.47
2023-02-27T15:40:05.213Z,49.43
2023-02-27T15:45:07.603Z,49.27
2023-02-27T15:50:27.623Z,49.32
2023-02-27T15:55:34.158Z,50.31
2023-02-27T16:00:36.018Z,52.24
2023-02-27T16:05:41.843Z,53.25
2023-02-27T16:10:46.267Z,54.04
2023-02-27T16:16:06.594Z,53.84
2023-02-27T16:21:20.424Z,54.63
2023-02-27T16:26:34.488Z,54.28
2023-02-27T16:31:39.677Z,54.79
2023-02-27T16:36:53.734Z,54.93
2023-02-27T16:42:01.181Z,53.86
2023-02-27T16:47:03.196Z,54.88
2023-02-27T16:52:04.974Z,55.51
2023-02-27T16:57:06.739Z,56.57
2023-02-27T17:02:12.868Z,58.18
2023-02-27T17:12:37.635Z,58.91
2023-02-27T17:17:39.715Z,60.38
2023-02-27T17:22:43.540Z,60.75
2023-02-27T17:27:45.228Z,60.94
2023-02-27T17:32:47.023Z,60.84
2023-02-27T17:37:48.631Z,61.01
2023-02-27T17:42:50.191Z,61.39
2023-02-27T17:47:51.839Z,60.44
2023-02-27T17:52:53.547Z,60.50
2023-02-27T17:57:55.059Z,61.66
2023-02-27T18:02:56.743Z,63.50
2023-02-27T18:07:58.294Z,62.95
2023-02-27T18:13:00.051Z,63.94
2023-02-27T18:18:01.729Z,64.53
2023-02-27T18:23:03.732Z,65.02
2023-02-27T18:28:06.539Z,63.98
2023-02-27T18:33:09.108Z,64.60
2023-02-27T18:38:10.954Z,64.61
2023-02-27T18:43:12.782Z,65.69
2023-02-27T18:48:14.649Z,65.54
2023-02-27T18:53:16.411Z,66.49
2023-02-27T18:58:18.008Z,67.12
2023-02-27T19:03:19.743Z,67.40
2023-02-27T19:08:21.538Z,67.97
2023-02-27T19:13:23.478Z,67.99
2023-02-27T19:18:25.134Z,68.67
2023-02-27T19:23:26.877Z,69.78
2023-02-27T19:28:28.622Z,72.48
2023-02-27T19:33:30.162Z,75.00
2023-02-27T19:38:31.980Z,73.41
2023-02-27T19:43:38.698Z,72.91
2023-02-27T19:48:40.396Z,74.02
2023-02-27T19:53:44.218Z,74.42
2023-02-27T19:58:47.091Z,73.13
2023-02-27T20:03:48.972Z,73.22
2023-02-27T20:08:51.621Z,73.85
2023-02-27T20:13:53.161Z,74.88
2023-02-27T20:19:05.446Z,76.49
2023-02-27T20:24:07.136Z,77.43
2023-02-27T20:29:18.041Z,77.98
2023-02-27T20:34:22.695Z,74.93
2023-02-27T20:39:25.204Z,74.05
2023-02-27T20:44:27.419Z,74.69
2023-02-27T20:49:29.203Z,74.29
2023-02-27T20:54:30.742Z,74.85
2023-02-27T20:59:32.421Z,75.00
2023-02-27T21:04:34.151Z,80.36
2023-02-27T21:09:35.964Z,80.90
2023-02-27T21:14:37.809Z,79.91
2023-02-27T21:19:39.546Z,81.14
2023-02-27T21:24:41.082Z,81.64
2023-02-27T21:29:43.664Z,83.75
2023-02-27T21:34:45.348Z,84.38
2023-02-27T21:39:47.030Z,85.84
2023-02-27T21:44:48.884Z,88.14
2023-02-27T21:49:50.459Z,88.82
2023-02-27T21:54:52.066Z,90.44
2023-02-27T21:59:53.702Z,91.82
2023-02-27T22:04:55.230Z,89.83
2023-02-27T22:09:56.765Z,92.97
2023-02-27T22:14:58.287Z,97.12
2023-02-27T22:19:59.814Z,98.73
2023-02-27T22:25:01.368Z,96.24
2023-02-27T22:30:02.975Z,93.88
2023-02-27T22:35:04.860Z,93.99
2023-02-27T22:40:07.215Z,93.05
2023-02-27T22:45:08.889Z,93.53
2023-02-27T22:50:11.143Z,93.54
2023-02-27T22:55:12.708Z,93.84
2023-02-27T23:00:14.514Z,94.46
2023-02-27T23:05:16.128Z,94.68
2023-02-27T23:10:17.751Z,93.61
2023-02-27T23:15:19.287Z,94.52
2023-02-27T23:20:20.866Z,95.21
2023-02-27T23:25:22.399Z,96.28
2023-02-27T23:30:23.916Z,95.70
2023-02-27T23:35:26.559Z,96.38
2023-02-27T23:40:28.615Z,97.03
2023-02-27T23:45:31.056Z,96.70
2023-02-27T23:50:36.222Z,97.45
2023-02-27T23:55:37.917Z,97.51
